Airfield :
LOGIN :

Register | Disclaimer

   EN    FR    IT 

 










Legend :    VFR   Marginal VFR   IFR   Intensive IFR   Very Intensive IFR
Visi :
Ceiling :
>= 8 km
>= 3000ft
5 to 8 km
1000 to 3000 ft
1500m to 5 km
500 to 1000 ft
800 to 1500m
200 to 500 ft
< 800m
< 200 ft
Symbols :   Thunderstorms  Fog  Heavy snow  Heavy precipitations  Wind > 20 kt
SIGMETs :     Misc.  Thunderstorms  Icing  Turbulence  Mountain Waves  Volcanic Ashes






- Airport Elevation : 75 ft
- IATA code : YEO


EGDY - RNAS Yeovilton

CURRENT METAR :
  • 052020Z AUTO 00000KT 9999 FEW240/// 00/M03 Q1045

EXPIRED METARs :
  • 051950Z AUTO 09002KT 9000 BR SCT220/// 01/M01 Q1046
  • 051920Z AUTO 09004KT 9999 FEW180/// 01/M02 Q1046
  • 051850Z AUTO 09006KT 9999 BKN190/// 03/00 Q1046
  • 051820Z AUTO 12003KT 9999 NCD 02/M01 Q1046
  • 051750Z AUTO 04003KT 9999 NCD 03/M01 Q1045

Expired Forecast.



MET'MAP, your aeronautical weather chart ! - Copyright ORBIFLY December 2007 - Disclaimer

ORBIFLY MET'MAP TEAM :

Programming & Development : Alexandra Zaïnal
Original concept : Baudouin d'Aumeries
Technical & hardware support : Manuel Goepfert
Assistance : Marc-Olivier Méhu




SOURCES & CREDITS :

   NOAA